sensor_id;sensor_type;location;lat;lon;timestamp;P1;durP1;ratioP1;P2;durP2;ratioP2
76725;SDS011;65651;53.154;17.916;2023-06-14T00:01:37;4.80;;;3.20;;
76725;SDS011;65651;53.154;17.916;2023-06-14T00:04:05;8.10;;;4.40;;
76725;SDS011;65651;53.154;17.916;2023-06-14T00:06:32;6.30;;;3.80;;
76725;SDS011;65651;53.154;17.916;2023-06-14T00:09:00;8.40;;;4.00;;
76725;SDS011;65651;53.154;17.916;2023-06-14T00:11:28;7.80;;;4.00;;
76725;SDS011;65651;53.154;17.916;2023-06-14T00:13:56;7.30;;;3.80;;
76725;SDS011;65651;53.154;17.916;2023-06-14T00:16:24;6.10;;;4.10;;
76725;SDS011;65651;53.154;17.916;2023-06-14T00:18:51;7.70;;;4.00;;
76725;SDS011;65651;53.154;17.916;2023-06-14T00:21:18;9.60;;;4.90;;
76725;SDS011;65651;53.154;17.916;2023-06-14T00:23:46;6.30;;;4.50;;
76725;SDS011;65651;53.154;17.916;2023-06-14T00:26:13;8.00;;;3.90;;
76725;SDS011;65651;53.154;17.916;2023-06-14T00:28:41;5.30;;;4.10;;
76725;SDS011;65651;53.154;17.916;2023-06-14T00:31:08;6.60;;;4.80;;
76725;SDS011;65651;53.154;17.916;2023-06-14T00:33:35;8.40;;;5.00;;
76725;SDS011;65651;53.154;17.916;2023-06-14T00:36:03;8.30;;;4.60;;
76725;SDS011;65651;53.154;17.916;2023-06-14T00:38:30;7.50;;;4.80;;
76725;SDS011;65651;53.154;17.916;2023-06-14T00:40:58;7.50;;;5.30;;
76725;SDS011;65651;53.154;17.916;2023-06-14T00:43:25;7.20;;;4.80;;
76725;SDS011;65651;53.154;17.916;2023-06-14T00:45:52;8.20;;;4.50;;
76725;SDS011;65651;53.154;17.916;2023-06-14T00:48:19;8.40;;;4.50;;
76725;SDS011;65651;53.154;17.916;2023-06-14T00:50:47;7.40;;;4.60;;
76725;SDS011;65651;53.154;17.916;2023-06-14T00:53:19;7.30;;;4.70;;
76725;SDS011;65651;53.154;17.916;2023-06-14T00:55:49;11.70;;;4.50;;
76725;SDS011;65651;53.154;17.916;2023-06-14T00:58:17;10.40;;;4.60;;
76725;SDS011;65651;53.154;17.916;2023-06-14T01:00:44;6.20;;;4.20;;
76725;SDS011;65651;53.154;17.916;2023-06-14T01:03:12;6.60;;;4.10;;
76725;SDS011;65651;53.154;17.916;2023-06-14T01:05:41;5.10;;;4.30;;
76725;SDS011;65651;53.154;17.916;2023-06-14T01:08:24;7.00;;;4.70;;
76725;SDS011;65651;53.154;17.916;2023-06-14T01:13:39;7.40;;;4.50;;
76725;SDS011;65651;53.154;17.916;2023-06-14T01:16:10;8.90;;;3.90;;
76725;SDS011;65651;53.154;17.916;2023-06-14T01:18:39;9.90;;;4.80;;
76725;SDS011;65651;53.154;17.916;2023-06-14T01:21:19;8.60;;;4.40;;
76725;SDS011;65651;53.154;17.916;2023-06-14T01:23:51;5.50;;;3.70;;
76725;SDS011;65651;53.154;17.916;2023-06-14T01:26:22;8.40;;;5.10;;
76725;SDS011;65651;53.154;17.916;2023-06-14T01:28:52;7.50;;;4.10;;
76725;SDS011;65651;53.154;17.916;2023-06-14T01:31:25;10.40;;;4.40;;
76725;SDS011;65651;53.154;17.916;2023-06-14T01:33:54;7.60;;;4.50;;
76725;SDS011;65651;53.154;17.916;2023-06-14T01:36:23;6.20;;;3.60;;
76725;SDS011;65651;53.154;17.916;2023-06-14T01:38:58;10.00;;;4.60;;
76725;SDS011;65651;53.154;17.916;2023-06-14T01:41:28;7.80;;;3.50;;
76725;SDS011;65651;53.154;17.916;2023-06-14T01:43:57;8.10;;;4.40;;
76725;SDS011;65651;53.154;17.916;2023-06-14T01:46:28;9.20;;;4.50;;
76725;SDS011;65651;53.154;17.916;2023-06-14T01:48:55;12.40;;;4.40;;
76725;SDS011;65651;53.154;17.916;2023-06-14T01:51:23;6.70;;;4.10;;
76725;SDS011;65651;53.154;17.916;2023-06-14T01:53:51;13.30;;;4.20;;
76725;SDS011;65651;53.154;17.916;2023-06-14T01:56:18;9.90;;;4.30;;
76725;SDS011;65651;53.154;17.916;2023-06-14T01:58:49;10.70;;;4.50;;
76725;SDS011;65651;53.154;17.916;2023-06-14T02:01:16;8.40;;;4.50;;
76725;SDS011;65651;53.154;17.916;2023-06-14T02:03:45;9.30;;;4.20;;
76725;SDS011;65651;53.154;17.916;2023-06-14T02:06:16;6.00;;;4.30;;
76725;SDS011;65651;53.154;17.916;2023-06-14T02:08:43;7.60;;;4.60;;
76725;SDS011;65651;53.154;17.916;2023-06-14T02:11:11;7.60;;;3.90;;
76725;SDS011;65651;53.154;17.916;2023-06-14T02:13:39;5.90;;;3.90;;
76725;SDS011;65651;53.154;17.916;2023-06-14T02:16:06;8.50;;;4.70;;
76725;SDS011;65651;53.154;17.916;2023-06-14T02:18:34;10.50;;;4.70;;
76725;SDS011;65651;53.154;17.916;2023-06-14T02:21:01;8.10;;;4.90;;
76725;SDS011;65651;53.154;17.916;2023-06-14T02:23:29;7.90;;;4.30;;
76725;SDS011;65651;53.154;17.916;2023-06-14T02:25:56;6.70;;;4.90;;
76725;SDS011;65651;53.154;17.916;2023-06-14T02:28:23;8.70;;;4.60;;
76725;SDS011;65651;53.154;17.916;2023-06-14T02:30:51;6.40;;;4.00;;
76725;SDS011;65651;53.154;17.916;2023-06-14T02:33:18;8.70;;;4.40;;
76725;SDS011;65651;53.154;17.916;2023-06-14T02:35:46;9.40;;;4.70;;
76725;SDS011;65651;53.154;17.916;2023-06-14T02:38:14;6.30;;;3.90;;
76725;SDS011;65651;53.154;17.916;2023-06-14T02:40:41;9.00;;;3.80;;
76725;SDS011;65651;53.154;17.916;2023-06-14T02:43:11;8.20;;;3.70;;
76725;SDS011;65651;53.154;17.916;2023-06-14T02:45:39;7.60;;;4.80;;
76725;SDS011;65651;53.154;17.916;2023-06-14T02:48:07;7.00;;;5.10;;
76725;SDS011;65651;53.154;17.916;2023-06-14T02:50:34;7.90;;;4.60;;
76725;SDS011;65651;53.154;17.916;2023-06-14T02:53:01;8.80;;;4.30;;
76725;SDS011;65651;53.154;17.916;2023-06-14T02:55:31;9.30;;;4.50;;
76725;SDS011;65651;53.154;17.916;2023-06-14T02:58:01;9.40;;;4.40;;
76725;SDS011;65651;53.154;17.916;2023-06-14T03:00:28;9.80;;;4.80;;
76725;SDS011;65651;53.154;17.916;2023-06-14T03:02:57;9.90;;;4.60;;
76725;SDS011;65651;53.154;17.916;2023-06-14T03:05:28;7.80;;;3.90;;
76725;SDS011;65651;53.154;17.916;2023-06-14T03:07:55;6.20;;;4.50;;
76725;SDS011;65651;53.154;17.916;2023-06-14T03:10:23;7.60;;;4.00;;
76725;SDS011;65651;53.154;17.916;2023-06-14T03:12:52;7.30;;;3.80;;
76725;SDS011;65651;53.154;17.916;2023-06-14T03:15:21;6.60;;;3.60;;
76725;SDS011;65651;53.154;17.916;2023-06-14T03:17:50;9.60;;;5.10;;
76725;SDS011;65651;53.154;17.916;2023-06-14T03:20:21;8.50;;;4.00;;
76725;SDS011;65651;53.154;17.916;2023-06-14T03:22:48;6.20;;;4.20;;
76725;SDS011;65651;53.154;17.916;2023-06-14T03:25:16;7.00;;;3.90;;
76725;SDS011;65651;53.154;17.916;2023-06-14T03:27:47;8.00;;;4.20;;
76725;SDS011;65651;53.154;17.916;2023-06-14T03:30:14;9.50;;;4.70;;
76725;SDS011;65651;53.154;17.916;2023-06-14T03:32:45;10.20;;;3.70;;
76725;SDS011;65651;53.154;17.916;2023-06-14T03:35:12;7.20;;;4.90;;
76725;SDS011;65651;53.154;17.916;2023-06-14T03:37:44;8.40;;;4.80;;
76725;SDS011;65651;53.154;17.916;2023-06-14T03:40:13;9.80;;;4.90;;
76725;SDS011;65651;53.154;17.916;2023-06-14T03:42:43;7.90;;;4.20;;
76725;SDS011;65651;53.154;17.916;2023-06-14T03:45:11;7.40;;;4.60;;
76725;SDS011;65651;53.154;17.916;2023-06-14T03:47:41;9.80;;;4.30;;
76725;SDS011;65651;53.154;17.916;2023-06-14T03:50:09;5.40;;;3.80;;
76725;SDS011;65651;53.154;17.916;2023-06-14T03:52:36;7.20;;;3.60;;
76725;SDS011;65651;53.154;17.916;2023-06-14T03:55:04;5.60;;;3.80;;
76725;SDS011;65651;53.154;17.916;2023-06-14T03:57:34;7.20;;;4.30;;
76725;SDS011;65651;53.154;17.916;2023-06-14T04:00:06;7.10;;;3.70;;
76725;SDS011;65651;53.154;17.916;2023-06-14T04:02:41;9.10;;;4.40;;
76725;SDS011;65651;53.154;17.916;2023-06-14T04:05:10;6.90;;;3.70;;
76725;SDS011;65651;53.154;17.916;2023-06-14T04:07:39;8.80;;;4.20;;
76725;SDS011;65651;53.154;17.916;2023-06-14T04:10:12;6.30;;;3.70;;
76725;SDS011;65651;53.154;17.916;2023-06-14T04:12:40;8.20;;;4.50;;
76725;SDS011;65651;53.154;17.916;2023-06-14T04:15:07;8.30;;;4.40;;
76725;SDS011;65651;53.154;17.916;2023-06-14T04:17:36;10.60;;;4.00;;
76725;SDS011;65651;53.154;17.916;2023-06-14T04:20:08;8.20;;;3.60;;
76725;SDS011;65651;53.154;17.916;2023-06-14T04:22:37;8.10;;;3.80;;
76725;SDS011;65651;53.154;17.916;2023-06-14T04:25:06;6.40;;;3.50;;
76725;SDS011;65651;53.154;17.916;2023-06-14T04:27:34;6.00;;;3.70;;
76725;SDS011;65651;53.154;17.916;2023-06-14T04:30:04;8.30;;;3.70;;
76725;SDS011;65651;53.154;17.916;2023-06-14T04:32:51;11.30;;;5.20;;
76725;SDS011;65651;53.154;17.916;2023-06-14T04:35:22;7.70;;;4.00;;
76725;SDS011;65651;53.154;17.916;2023-06-14T04:37:55;7.90;;;4.10;;
76725;SDS011;65651;53.154;17.916;2023-06-14T04:40:26;9.70;;;4.20;;
76725;SDS011;65651;53.154;17.916;2023-06-14T04:42:53;6.30;;;3.00;;
76725;SDS011;65651;53.154;17.916;2023-06-14T04:45:21;10.10;;;4.50;;
76725;SDS011;65651;53.154;17.916;2023-06-14T04:47:50;7.40;;;3.10;;
76725;SDS011;65651;53.154;17.916;2023-06-14T04:50:20;7.20;;;3.60;;
76725;SDS011;65651;53.154;17.916;2023-06-14T04:52:50;7.70;;;3.80;;
76725;SDS011;65651;53.154;17.916;2023-06-14T04:55:20;6.60;;;4.10;;
76725;SDS011;65651;53.154;17.916;2023-06-14T04:57:48;10.60;;;4.00;;
76725;SDS011;65651;53.154;17.916;2023-06-14T05:00:16;7.40;;;4.00;;
76725;SDS011;65651;53.154;17.916;2023-06-14T05:02:44;6.20;;;3.70;;
76725;SDS011;65651;53.154;17.916;2023-06-14T05:05:12;5.40;;;3.30;;
76725;SDS011;65651;53.154;17.916;2023-06-14T05:07:43;7.30;;;3.90;;
76725;SDS011;65651;53.154;17.916;2023-06-14T05:10:11;8.00;;;4.50;;
76725;SDS011;65651;53.154;17.916;2023-06-14T05:12:38;7.60;;;3.70;;
76725;SDS011;65651;53.154;17.916;2023-06-14T05:15:09;8.50;;;3.90;;
76725;SDS011;65651;53.154;17.916;2023-06-14T05:17:37;5.50;;;3.50;;
76725;SDS011;65651;53.154;17.916;2023-06-14T05:20:09;7.70;;;4.40;;
76725;SDS011;65651;53.154;17.916;2023-06-14T05:22:37;7.00;;;4.10;;
76725;SDS011;65651;53.154;17.916;2023-06-14T05:25:04;10.40;;;4.30;;
76725;SDS011;65651;53.154;17.916;2023-06-14T05:27:32;6.50;;;4.40;;
76725;SDS011;65651;53.154;17.916;2023-06-14T05:30:02;8.90;;;4.60;;
76725;SDS011;65651;53.154;17.916;2023-06-14T05:32:30;10.00;;;4.40;;
76725;SDS011;65651;53.154;17.916;2023-06-14T05:34:58;8.90;;;4.60;;
76725;SDS011;65651;53.154;17.916;2023-06-14T05:37:25;10.80;;;4.40;;
76725;SDS011;65651;53.154;17.916;2023-06-14T05:39:52;15.50;;;3.60;;
76725;SDS011;65651;53.154;17.916;2023-06-14T05:42:19;9.40;;;4.10;;
76725;SDS011;65651;53.154;17.916;2023-06-14T05:44:47;9.60;;;3.30;;
76725;SDS011;65651;53.154;17.916;2023-06-14T05:47:14;7.20;;;3.40;;
76725;SDS011;65651;53.154;17.916;2023-06-14T05:49:42;6.20;;;3.40;;
76725;SDS011;65651;53.154;17.916;2023-06-14T05:52:09;7.80;;;3.60;;
76725;SDS011;65651;53.154;17.916;2023-06-14T05:54:37;14.70;;;4.00;;
76725;SDS011;65651;53.154;17.916;2023-06-14T05:57:04;8.70;;;3.50;;
76725;SDS011;65651;53.154;17.916;2023-06-14T05:59:34;10.10;;;3.90;;
76725;SDS011;65651;53.154;17.916;2023-06-14T06:02:04;6.60;;;4.00;;
76725;SDS011;65651;53.154;17.916;2023-06-14T06:04:32;6.20;;;3.50;;
76725;SDS011;65651;53.154;17.916;2023-06-14T06:07:01;6.50;;;3.20;;
76725;SDS011;65651;53.154;17.916;2023-06-14T06:09:32;13.40;;;3.90;;
76725;SDS011;65651;53.154;17.916;2023-06-14T06:11:59;7.60;;;3.80;;
76725;SDS011;65651;53.154;17.916;2023-06-14T06:14:27;8.90;;;3.70;;
76725;SDS011;65651;53.154;17.916;2023-06-14T06:16:54;6.80;;;2.90;;
76725;SDS011;65651;53.154;17.916;2023-06-14T06:19:23;8.30;;;4.00;;
76725;SDS011;65651;53.154;17.916;2023-06-14T06:21:51;5.50;;;3.40;;
76725;SDS011;65651;53.154;17.916;2023-06-14T06:24:18;7.40;;;3.30;;
76725;SDS011;65651;53.154;17.916;2023-06-14T06:26:45;7.30;;;3.40;;
76725;SDS011;65651;53.154;17.916;2023-06-14T06:29:13;7.70;;;3.90;;
76725;SDS011;65651;53.154;17.916;2023-06-14T06:31:40;6.30;;;2.80;;
76725;SDS011;65651;53.154;17.916;2023-06-14T06:34:08;6.10;;;2.90;;
76725;SDS011;65651;53.154;17.916;2023-06-14T06:36:35;6.10;;;2.40;;
76725;SDS011;65651;53.154;17.916;2023-06-14T06:39:02;5.50;;;3.00;;
76725;SDS011;65651;53.154;17.916;2023-06-14T06:41:42;6.90;;;2.30;;
76725;SDS011;65651;53.154;17.916;2023-06-14T06:44:09;18.00;;;2.80;;
76725;SDS011;65651;53.154;17.916;2023-06-14T06:46:39;7.20;;;2.80;;
76725;SDS011;65651;53.154;17.916;2023-06-14T06:49:08;8.80;;;3.00;;
76725;SDS011;65651;53.154;17.916;2023-06-14T06:51:36;7.60;;;2.90;;
76725;SDS011;65651;53.154;17.916;2023-06-14T06:54:03;7.90;;;2.70;;
76725;SDS011;65651;53.154;17.916;2023-06-14T06:56:35;6.50;;;2.50;;
76725;SDS011;65651;53.154;17.916;2023-06-14T06:59:02;4.90;;;3.00;;
76725;SDS011;65651;53.154;17.916;2023-06-14T07:01:30;6.70;;;3.20;;
76725;SDS011;65651;53.154;17.916;2023-06-14T07:03:57;10.00;;;3.70;;
76725;SDS011;65651;53.154;17.916;2023-06-14T07:06:24;12.90;;;3.50;;
76725;SDS011;65651;53.154;17.916;2023-06-14T07:08:54;7.30;;;3.10;;
76725;SDS011;65651;53.154;17.916;2023-06-14T07:11:21;6.00;;;2.30;;
76725;SDS011;65651;53.154;17.916;2023-06-14T07:13:51;9.20;;;2.80;;
76725;SDS011;65651;53.154;17.916;2023-06-14T07:16:19;6.50;;;2.60;;
76725;SDS011;65651;53.154;17.916;2023-06-14T07:18:46;7.80;;;2.90;;
76725;SDS011;65651;53.154;17.916;2023-06-14T07:21:17;7.30;;;3.20;;
76725;SDS011;65651;53.154;17.916;2023-06-14T07:23:44;7.50;;;2.90;;
76725;SDS011;65651;53.154;17.916;2023-06-14T07:26:11;6.20;;;3.20;;
76725;SDS011;65651;53.154;17.916;2023-06-14T07:28:39;7.10;;;3.10;;
76725;SDS011;65651;53.154;17.916;2023-06-14T07:31:06;19.00;;;3.80;;
76725;SDS011;65651;53.154;17.916;2023-06-14T07:33:33;5.90;;;2.90;;
76725;SDS011;65651;53.154;17.916;2023-06-14T07:36:01;8.30;;;2.80;;
76725;SDS011;65651;53.154;17.916;2023-06-14T07:38:28;6.60;;;2.90;;
76725;SDS011;65651;53.154;17.916;2023-06-14T07:40:55;7.10;;;2.40;;
76725;SDS011;65651;53.154;17.916;2023-06-14T07:43:25;8.20;;;2.20;;
76725;SDS011;65651;53.154;17.916;2023-06-14T07:45:53;10.10;;;2.80;;
76725;SDS011;65651;53.154;17.916;2023-06-14T07:48:20;6.00;;;3.20;;
76725;SDS011;65651;53.154;17.916;2023-06-14T07:50:48;12.70;;;2.80;;
76725;SDS011;65651;53.154;17.916;2023-06-14T07:53:15;9.90;;;3.80;;
76725;SDS011;65651;53.154;17.916;2023-06-14T07:55:42;8.10;;;3.00;;
76725;SDS011;65651;53.154;17.916;2023-06-14T07:58:10;6.60;;;3.40;;
76725;SDS011;65651;53.154;17.916;2023-06-14T08:00:37;8.60;;;3.40;;
76725;SDS011;65651;53.154;17.916;2023-06-14T08:03:05;6.60;;;3.10;;
76725;SDS011;65651;53.154;17.916;2023-06-14T08:05:36;7.90;;;3.40;;
76725;SDS011;65651;53.154;17.916;2023-06-14T08:08:04;13.00;;;3.40;;
76725;SDS011;65651;53.154;17.916;2023-06-14T08:10:32;9.60;;;3.70;;
76725;SDS011;65651;53.154;17.916;2023-06-14T08:12:59;5.90;;;3.60;;
76725;SDS011;65651;53.154;17.916;2023-06-14T08:15:27;8.10;;;3.50;;
76725;SDS011;65651;53.154;17.916;2023-06-14T08:17:54;6.40;;;3.00;;
76725;SDS011;65651;53.154;17.916;2023-06-14T08:20:22;8.30;;;3.60;;
76725;SDS011;65651;53.154;17.916;2023-06-14T08:22:49;7.30;;;3.50;;
76725;SDS011;65651;53.154;17.916;2023-06-14T08:25:16;6.20;;;2.70;;
76725;SDS011;65651;53.154;17.916;2023-06-14T08:27:43;7.70;;;3.80;;
76725;SDS011;65651;53.154;17.916;2023-06-14T08:30:11;8.90;;;3.80;;
76725;SDS011;65651;53.154;17.916;2023-06-14T08:32:39;6.10;;;2.80;;
76725;SDS011;65651;53.154;17.916;2023-06-14T08:35:07;12.30;;;3.50;;
76725;SDS011;65651;53.154;17.916;2023-06-14T08:37:39;7.20;;;3.70;;
76725;SDS011;65651;53.154;17.916;2023-06-14T08:40:28;7.90;;;3.20;;
76725;SDS011;65651;53.154;17.916;2023-06-14T08:42:57;6.40;;;3.00;;
76725;SDS011;65651;53.154;17.916;2023-06-14T08:45:25;14.40;;;3.70;;
76725;SDS011;65651;53.154;17.916;2023-06-14T08:47:53;7.30;;;3.40;;
76725;SDS011;65651;53.154;17.916;2023-06-14T08:50:24;7.50;;;3.60;;
76725;SDS011;65651;53.154;17.916;2023-06-14T08:52:54;7.10;;;3.20;;
76725;SDS011;65651;53.154;17.916;2023-06-14T08:55:24;6.30;;;3.30;;
76725;SDS011;65651;53.154;17.916;2023-06-14T08:57:56;6.90;;;3.40;;
76725;SDS011;65651;53.154;17.916;2023-06-14T09:00:27;5.30;;;3.10;;
76725;SDS011;65651;53.154;17.916;2023-06-14T09:02:55;10.10;;;3.60;;
76725;SDS011;65651;53.154;17.916;2023-06-14T09:05:24;9.50;;;4.50;;
76725;SDS011;65651;53.154;17.916;2023-06-14T09:07:53;8.30;;;3.50;;
76725;SDS011;65651;53.154;17.916;2023-06-14T09:10:22;9.20;;;3.30;;
76725;SDS011;65651;53.154;17.916;2023-06-14T09:12:50;6.80;;;3.40;;
76725;SDS011;65651;53.154;17.916;2023-06-14T09:15:18;6.70;;;4.10;;
76725;SDS011;65651;53.154;17.916;2023-06-14T09:17:45;7.70;;;3.80;;
76725;SDS011;65651;53.154;17.916;2023-06-14T09:20:12;6.70;;;3.20;;
76725;SDS011;65651;53.154;17.916;2023-06-14T09:22:44;5.60;;;3.20;;
76725;SDS011;65651;53.154;17.916;2023-06-14T09:25:12;9.60;;;3.30;;
76725;SDS011;65651;53.154;17.916;2023-06-14T09:27:42;6.70;;;3.40;;
76725;SDS011;65651;53.154;17.916;2023-06-14T09:30:09;8.00;;;4.00;;
76725;SDS011;65651;53.154;17.916;2023-06-14T09:32:37;8.40;;;3.40;;
76725;SDS011;65651;53.154;17.916;2023-06-14T09:35:07;5.00;;;3.70;;
76725;SDS011;65651;53.154;17.916;2023-06-14T09:37:35;5.80;;;3.40;;
76725;SDS011;65651;53.154;17.916;2023-06-14T09:40:05;7.80;;;3.90;;
76725;SDS011;65651;53.154;17.916;2023-06-14T09:42:34;7.00;;;3.40;;
76725;SDS011;65651;53.154;17.916;2023-06-14T09:45:03;7.30;;;3.70;;
76725;SDS011;65651;53.154;17.916;2023-06-14T09:47:32;8.00;;;3.40;;
76725;SDS011;65651;53.154;17.916;2023-06-14T09:49:59;9.60;;;3.90;;
76725;SDS011;65651;53.154;17.916;2023-06-14T09:52:27;9.00;;;4.90;;
76725;SDS011;65651;53.154;17.916;2023-06-14T09:54:55;8.30;;;4.10;;
76725;SDS011;65651;53.154;17.916;2023-06-14T09:57:26;11.00;;;3.90;;
76725;SDS011;65651;53.154;17.916;2023-06-14T09:59:58;15.60;;;4.40;;
76725;SDS011;65651;53.154;17.916;2023-06-14T10:02:39;10.80;;;3.80;;
76725;SDS011;65651;53.154;17.916;2023-06-14T10:05:15;7.00;;;3.60;;
76725;SDS011;65651;53.154;17.916;2023-06-14T10:07:55;5.20;;;3.40;;
76725;SDS011;65651;53.154;17.916;2023-06-14T10:10:26;5.90;;;3.40;;
76725;SDS011;65651;53.154;17.916;2023-06-14T10:12:53;7.20;;;4.20;;
76725;SDS011;65651;53.154;17.916;2023-06-14T10:15:32;9.20;;;4.20;;
76725;SDS011;65651;53.154;17.916;2023-06-14T10:18:11;8.50;;;3.90;;
76725;SDS011;65651;53.154;17.916;2023-06-14T10:23:46;6.80;;;3.00;;
76725;SDS011;65651;53.154;17.916;2023-06-14T10:26:19;5.30;;;3.40;;
76725;SDS011;65651;53.154;17.916;2023-06-14T10:29:00;8.50;;;3.40;;
76725;SDS011;65651;53.154;17.916;2023-06-14T10:32:07;6.10;;;3.30;;
76725;SDS011;65651;53.154;17.916;2023-06-14T10:34:30;6.20;;;3.40;;
76725;SDS011;65651;53.154;17.916;2023-06-14T10:39:30;6.20;;;3.40;;
76725;SDS011;65651;53.154;17.916;2023-06-14T10:41:58;12.30;;;4.10;;
76725;SDS011;65651;53.154;17.916;2023-06-14T10:47:06;7.00;;;3.90;;
76725;SDS011;65651;53.154;17.916;2023-06-14T10:49:54;9.40;;;3.70;;
76725;SDS011;65651;53.154;17.916;2023-06-14T10:52:23;11.70;;;4.00;;
76725;SDS011;65651;53.154;17.916;2023-06-14T11:00:09;5.10;;;3.50;;
76725;SDS011;65651;53.154;17.916;2023-06-14T11:05:20;13.10;;;3.80;;
76725;SDS011;65651;53.154;17.916;2023-06-14T11:10:42;12.50;;;3.90;;
76725;SDS011;65651;53.154;17.916;2023-06-14T11:13:15;6.90;;;3.80;;
76725;SDS011;65651;53.154;17.916;2023-06-14T11:15:45;7.00;;;3.20;;
76725;SDS011;65651;53.154;17.916;2023-06-14T11:18:15;8.20;;;3.90;;
76725;SDS011;65651;53.154;17.916;2023-06-14T11:20:45;9.60;;;4.30;;
76725;SDS011;65651;53.154;17.916;2023-06-14T11:23:13;9.20;;;4.30;;
76725;SDS011;65651;53.154;17.916;2023-06-14T11:25:42;8.50;;;4.00;;
76725;SDS011;65651;53.154;17.916;2023-06-14T11:28:09;10.00;;;4.30;;
76725;SDS011;65651;53.154;17.916;2023-06-14T11:30:39;8.10;;;4.20;;
76725;SDS011;65651;53.154;17.916;2023-06-14T11:33:09;13.20;;;4.00;;
76725;SDS011;65651;53.154;17.916;2023-06-14T11:35:37;9.90;;;4.40;;
76725;SDS011;65651;53.154;17.916;2023-06-14T11:38:05;6.90;;;4.10;;
76725;SDS011;65651;53.154;17.916;2023-06-14T11:40:32;8.90;;;4.00;;
76725;SDS011;65651;53.154;17.916;2023-06-14T11:43:00;8.50;;;4.70;;
76725;SDS011;65651;53.154;17.916;2023-06-14T11:45:29;8.70;;;3.90;;
76725;SDS011;65651;53.154;17.916;2023-06-14T11:48:00;11.40;;;4.60;;
76725;SDS011;65651;53.154;17.916;2023-06-14T11:50:28;9.80;;;3.90;;
76725;SDS011;65651;53.154;17.916;2023-06-14T11:52:56;7.10;;;4.10;;
76725;SDS011;65651;53.154;17.916;2023-06-14T11:55:24;10.80;;;4.20;;
76725;SDS011;65651;53.154;17.916;2023-06-14T11:57:55;10.20;;;3.80;;
76725;SDS011;65651;53.154;17.916;2023-06-14T12:00:25;11.80;;;3.90;;
76725;SDS011;65651;53.154;17.916;2023-06-14T12:02:54;12.10;;;4.30;;
76725;SDS011;65651;53.154;17.916;2023-06-14T12:05:28;8.10;;;3.90;;
76725;SDS011;65651;53.154;17.916;2023-06-14T12:08:13;12.00;;;4.30;;
76725;SDS011;65651;53.154;17.916;2023-06-14T12:10:44;10.20;;;4.80;;
76725;SDS011;65651;53.154;17.916;2023-06-14T12:13:11;10.00;;;4.40;;
76725;SDS011;65651;53.154;17.916;2023-06-14T12:15:38;14.50;;;7.60;;
76725;SDS011;65651;53.154;17.916;2023-06-14T12:18:06;13.40;;;4.80;;
76725;SDS011;65651;53.154;17.916;2023-06-14T12:20:35;10.30;;;4.30;;
76725;SDS011;65651;53.154;17.916;2023-06-14T12:23:03;12.60;;;4.50;;
76725;SDS011;65651;53.154;17.916;2023-06-14T12:25:32;13.90;;;4.70;;
76725;SDS011;65651;53.154;17.916;2023-06-14T12:28:05;15.90;;;4.90;;
76725;SDS011;65651;53.154;17.916;2023-06-14T12:30:37;15.40;;;4.40;;
76725;SDS011;65651;53.154;17.916;2023-06-14T12:33:08;8.60;;;3.90;;
76725;SDS011;65651;53.154;17.916;2023-06-14T12:35:35;6.00;;;4.10;;
76725;SDS011;65651;53.154;17.916;2023-06-14T12:38:02;5.60;;;4.30;;
76725;SDS011;65651;53.154;17.916;2023-06-14T12:40:30;10.70;;;4.50;;
76725;SDS011;65651;53.154;17.916;2023-06-14T12:42:58;10.60;;;4.40;;
76725;SDS011;65651;53.154;17.916;2023-06-14T12:45:25;9.80;;;4.40;;
76725;SDS011;65651;53.154;17.916;2023-06-14T12:47:53;12.40;;;4.60;;
76725;SDS011;65651;53.154;17.916;2023-06-14T12:50:20;26.20;;;5.20;;
76725;SDS011;65651;53.154;17.916;2023-06-14T12:52:47;10.90;;;4.30;;
76725;SDS011;65651;53.154;17.916;2023-06-14T12:55:15;12.60;;;4.20;;
76725;SDS011;65651;53.154;17.916;2023-06-14T12:57:42;8.50;;;4.10;;
76725;SDS011;65651;53.154;17.916;2023-06-14T13:00:10;9.80;;;4.70;;
76725;SDS011;65651;53.154;17.916;2023-06-14T13:02:39;10.90;;;4.60;;
76725;SDS011;65651;53.154;17.916;2023-06-14T13:05:07;8.30;;;4.40;;
76725;SDS011;65651;53.154;17.916;2023-06-14T13:07:34;8.20;;;4.70;;
76725;SDS011;65651;53.154;17.916;2023-06-14T13:10:02;9.90;;;4.10;;
76725;SDS011;65651;53.154;17.916;2023-06-14T13:12:29;8.40;;;4.20;;
76725;SDS011;65651;53.154;17.916;2023-06-14T13:14:59;9.50;;;4.20;;
76725;SDS011;65651;53.154;17.916;2023-06-14T13:17:26;11.60;;;4.30;;
76725;SDS011;65651;53.154;17.916;2023-06-14T13:19:54;7.90;;;3.90;;
76725;SDS011;65651;53.154;17.916;2023-06-14T13:22:21;5.60;;;3.90;;
76725;SDS011;65651;53.154;17.916;2023-06-14T13:24:51;9.40;;;4.20;;
76725;SDS011;65651;53.154;17.916;2023-06-14T13:27:19;9.80;;;4.00;;
76725;SDS011;65651;53.154;17.916;2023-06-14T13:29:47;6.70;;;4.20;;
76725;SDS011;65651;53.154;17.916;2023-06-14T13:32:14;9.00;;;4.40;;
76725;SDS011;65651;53.154;17.916;2023-06-14T13:34:42;8.30;;;4.40;;
76725;SDS011;65651;53.154;17.916;2023-06-14T13:37:09;7.90;;;4.40;;
76725;SDS011;65651;53.154;17.916;2023-06-14T13:39:37;6.90;;;3.90;;
76725;SDS011;65651;53.154;17.916;2023-06-14T13:42:04;7.20;;;4.50;;
76725;SDS011;65651;53.154;17.916;2023-06-14T13:44:32;7.00;;;4.10;;
76725;SDS011;65651;53.154;17.916;2023-06-14T13:46:59;8.50;;;4.20;;
76725;SDS011;65651;53.154;17.916;2023-06-14T13:49:27;7.60;;;4.30;;
76725;SDS011;65651;53.154;17.916;2023-06-14T13:51:54;12.00;;;4.60;;
76725;SDS011;65651;53.154;17.916;2023-06-14T13:54:22;9.20;;;4.00;;
76725;SDS011;65651;53.154;17.916;2023-06-14T13:56:49;10.70;;;4.20;;
76725;SDS011;65651;53.154;17.916;2023-06-14T13:59:17;6.10;;;4.10;;
76725;SDS011;65651;53.154;17.916;2023-06-14T14:01:45;13.80;;;4.40;;
76725;SDS011;65651;53.154;17.916;2023-06-14T14:04:14;6.70;;;3.80;;
76725;SDS011;65651;53.154;17.916;2023-06-14T14:06:43;8.90;;;3.60;;
76725;SDS011;65651;53.154;17.916;2023-06-14T14:09:12;8.00;;;4.00;;
76725;SDS011;65651;53.154;17.916;2023-06-14T14:11:39;5.50;;;3.70;;
76725;SDS011;65651;53.154;17.916;2023-06-14T14:14:09;5.60;;;3.70;;
76725;SDS011;65651;53.154;17.916;2023-06-14T14:16:37;7.60;;;3.90;;
76725;SDS011;65651;53.154;17.916;2023-06-14T14:19:05;7.20;;;3.60;;
76725;SDS011;65651;53.154;17.916;2023-06-14T14:21:33;7.80;;;3.80;;
76725;SDS011;65651;53.154;17.916;2023-06-14T14:24:00;7.10;;;4.00;;
76725;SDS011;65651;53.154;17.916;2023-06-14T14:26:28;14.30;;;4.30;;
76725;SDS011;65651;53.154;17.916;2023-06-14T14:28:55;13.00;;;4.10;;
76725;SDS011;65651;53.154;17.916;2023-06-14T14:31:23;7.70;;;3.70;;
76725;SDS011;65651;53.154;17.916;2023-06-14T14:33:50;6.40;;;3.40;;
76725;SDS011;65651;53.154;17.916;2023-06-14T14:36:20;7.90;;;3.50;;
76725;SDS011;65651;53.154;17.916;2023-06-14T14:38:47;9.10;;;4.30;;
76725;SDS011;65651;53.154;17.916;2023-06-14T14:41:15;9.80;;;4.20;;
76725;SDS011;65651;53.154;17.916;2023-06-14T14:43:42;6.50;;;4.60;;
76725;SDS011;65651;53.154;17.916;2023-06-14T14:46:09;6.50;;;4.40;;
76725;SDS011;65651;53.154;17.916;2023-06-14T14:48:37;6.60;;;3.90;;
76725;SDS011;65651;53.154;17.916;2023-06-14T14:51:04;5.30;;;4.10;;
76725;SDS011;65651;53.154;17.916;2023-06-14T14:53:31;12.30;;;4.50;;
76725;SDS011;65651;53.154;17.916;2023-06-14T14:55:59;7.40;;;4.50;;
76725;SDS011;65651;53.154;17.916;2023-06-14T14:58:27;6.30;;;3.80;;
76725;SDS011;65651;53.154;17.916;2023-06-14T15:00:54;6.80;;;3.10;;
76725;SDS011;65651;53.154;17.916;2023-06-14T15:03:24;4.80;;;3.00;;